sensor_id;sensor_type;location;lat;lon;timestamp;P1;durP1;ratioP1;P2;durP2;ratioP2
9409;SDS011;4744;52.576;13.568;2023-12-22T00:01:58;6.47;;;2.25;;
9409;SDS011;4744;52.576;13.568;2023-12-22T00:04:25;7.65;;;2.20;;
9409;SDS011;4744;52.576;13.568;2023-12-22T00:06:52;6.38;;;2.30;;
9409;SDS011;4744;52.576;13.568;2023-12-22T00:09:21;10.02;;;2.40;;
9409;SDS011;4744;52.576;13.568;2023-12-22T00:11:48;7.82;;;1.98;;
9409;SDS011;4744;52.576;13.568;2023-12-22T00:14:15;7.13;;;2.28;;
9409;SDS011;4744;52.576;13.568;2023-12-22T00:16:41;4.80;;;1.98;;
9409;SDS011;4744;52.576;13.568;2023-12-22T00:19:08;7.05;;;2.03;;
9409;SDS011;4744;52.576;13.568;2023-12-22T00:21:35;5.22;;;1.75;;
9409;SDS011;4744;52.576;13.568;2023-12-22T00:24:02;5.70;;;2.10;;
9409;SDS011;4744;52.576;13.568;2023-12-22T00:26:31;8.05;;;2.17;;
9409;SDS011;4744;52.576;13.568;2023-12-22T00:28:57;7.43;;;2.40;;
9409;SDS011;4744;52.576;13.568;2023-12-22T00:31:24;9.35;;;1.85;;
9409;SDS011;4744;52.576;13.568;2023-12-22T00:33:51;7.15;;;2.10;;
9409;SDS011;4744;52.576;13.568;2023-12-22T00:36:18;5.25;;;1.95;;
9409;SDS011;4744;52.576;13.568;2023-12-22T00:38:48;7.80;;;2.30;;
9409;SDS011;4744;52.576;13.568;2023-12-22T00:41:15;5.43;;;2.60;;
9409;SDS011;4744;52.576;13.568;2023-12-22T00:43:43;10.95;;;2.40;;
9409;SDS011;4744;52.576;13.568;2023-12-22T00:46:10;8.13;;;2.47;;
9409;SDS011;4744;52.576;13.568;2023-12-22T00:48:37;6.53;;;2.00;;
9409;SDS011;4744;52.576;13.568;2023-12-22T00:51:05;7.55;;;2.45;;
9409;SDS011;4744;52.576;13.568;2023-12-22T00:53:32;10.98;;;3.03;;
9409;SDS011;4744;52.576;13.568;2023-12-22T00:55:59;8.98;;;2.90;;
9409;SDS011;4744;52.576;13.568;2023-12-22T00:58:27;7.72;;;2.90;;
9409;SDS011;4744;52.576;13.568;2023-12-22T01:00:56;11.93;;;2.78;;
9409;SDS011;4744;52.576;13.568;2023-12-22T01:03:23;10.43;;;2.53;;
9409;SDS011;4744;52.576;13.568;2023-12-22T01:05:50;8.80;;;2.47;;
9409;SDS011;4744;52.576;13.568;2023-12-22T01:08:16;9.48;;;2.85;;
9409;SDS011;4744;52.576;13.568;2023-12-22T01:10:43;10.13;;;3.00;;
9409;SDS011;4744;52.576;13.568;2023-12-22T01:13:10;9.65;;;2.40;;
9409;SDS011;4744;52.576;13.568;2023-12-22T01:15:37;6.10;;;1.92;;
9409;SDS011;4744;52.576;13.568;2023-12-22T01:18:06;9.43;;;2.58;;
9409;SDS011;4744;52.576;13.568;2023-12-22T01:20:32;8.73;;;2.75;;
9409;SDS011;4744;52.576;13.568;2023-12-22T01:22:59;8.52;;;2.25;;
9409;SDS011;4744;52.576;13.568;2023-12-22T01:25:26;8.80;;;2.70;;
9409;SDS011;4744;52.576;13.568;2023-12-22T01:27:53;8.18;;;2.42;;
9409;SDS011;4744;52.576;13.568;2023-12-22T01:30:20;7.57;;;2.40;;
9409;SDS011;4744;52.576;13.568;2023-12-22T01:32:47;10.13;;;2.80;;
9409;SDS011;4744;52.576;13.568;2023-12-22T01:35:15;11.75;;;2.75;;
9409;SDS011;4744;52.576;13.568;2023-12-22T01:37:42;10.98;;;2.65;;
9409;SDS011;4744;52.576;13.568;2023-12-22T01:40:09;11.13;;;2.45;;
9409;SDS011;4744;52.576;13.568;2023-12-22T01:42:36;7.18;;;2.35;;
9409;SDS011;4744;52.576;13.568;2023-12-22T01:45:03;10.98;;;2.33;;
9409;SDS011;4744;52.576;13.568;2023-12-22T01:47:31;11.48;;;2.45;;
9409;SDS011;4744;52.576;13.568;2023-12-22T01:49:58;6.00;;;2.40;;
9409;SDS011;4744;52.576;13.568;2023-12-22T01:52:27;7.15;;;2.63;;
9409;SDS011;4744;52.576;13.568;2023-12-22T01:54:54;6.70;;;2.13;;
9409;SDS011;4744;52.576;13.568;2023-12-22T01:57:21;11.10;;;2.35;;
9409;SDS011;4744;52.576;13.568;2023-12-22T01:59:48;8.23;;;2.35;;
9409;SDS011;4744;52.576;13.568;2023-12-22T02:02:16;12.95;;;2.85;;
9409;SDS011;4744;52.576;13.568;2023-12-22T02:04:43;8.07;;;2.45;;
9409;SDS011;4744;52.576;13.568;2023-12-22T02:07:11;10.48;;;2.25;;
9409;SDS011;4744;52.576;13.568;2023-12-22T02:09:40;8.40;;;2.33;;
9409;SDS011;4744;52.576;13.568;2023-12-22T02:12:07;9.85;;;2.72;;
9409;SDS011;4744;52.576;13.568;2023-12-22T02:14:34;10.15;;;2.60;;
9409;SDS011;4744;52.576;13.568;2023-12-22T02:17:02;12.65;;;2.83;;
9409;SDS011;4744;52.576;13.568;2023-12-22T02:19:41;8.75;;;2.40;;
9409;SDS011;4744;52.576;13.568;2023-12-22T02:22:10;7.80;;;2.80;;
9409;SDS011;4744;52.576;13.568;2023-12-22T02:24:39;7.25;;;2.30;;
9409;SDS011;4744;52.576;13.568;2023-12-22T02:27:10;9.80;;;2.83;;
9409;SDS011;4744;52.576;13.568;2023-12-22T02:29:45;5.97;;;2.45;;
9409;SDS011;4744;52.576;13.568;2023-12-22T02:32:17;8.18;;;2.20;;
9409;SDS011;4744;52.576;13.568;2023-12-22T02:34:49;8.77;;;2.40;;
9409;SDS011;4744;52.576;13.568;2023-12-22T02:37:19;7.43;;;2.20;;
9409;SDS011;4744;52.576;13.568;2023-12-22T02:39:49;9.02;;;2.47;;
9409;SDS011;4744;52.576;13.568;2023-12-22T02:42:17;7.88;;;2.30;;
9409;SDS011;4744;52.576;13.568;2023-12-22T02:44:48;8.70;;;2.67;;
9409;SDS011;4744;52.576;13.568;2023-12-22T02:47:15;10.38;;;2.45;;
9409;SDS011;4744;52.576;13.568;2023-12-22T02:49:42;9.02;;;2.08;;
9409;SDS011;4744;52.576;13.568;2023-12-22T02:52:07;5.53;;;2.10;;
9409;SDS011;4744;52.576;13.568;2023-12-22T02:54:34;7.00;;;2.25;;
9409;SDS011;4744;52.576;13.568;2023-12-22T02:57:06;6.80;;;2.30;;
9409;SDS011;4744;52.576;13.568;2023-12-22T02:59:33;8.18;;;2.80;;
9409;SDS011;4744;52.576;13.568;2023-12-22T03:02:00;7.53;;;2.45;;
9409;SDS011;4744;52.576;13.568;2023-12-22T03:04:27;8.43;;;2.67;;
9409;SDS011;4744;52.576;13.568;2023-12-22T03:06:54;6.90;;;1.90;;
9409;SDS011;4744;52.576;13.568;2023-12-22T03:09:20;10.60;;;2.47;;
9409;SDS011;4744;52.576;13.568;2023-12-22T03:11:48;5.85;;;2.40;;
9409;SDS011;4744;52.576;13.568;2023-12-22T03:14:16;4.85;;;1.95;;
9409;SDS011;4744;52.576;13.568;2023-12-22T03:16:43;6.78;;;2.28;;
9409;SDS011;4744;52.576;13.568;2023-12-22T03:19:09;9.55;;;2.30;;
9409;SDS011;4744;52.576;13.568;2023-12-22T03:21:36;7.00;;;1.83;;
9409;SDS011;4744;52.576;13.568;2023-12-22T03:24:03;9.65;;;1.95;;
9409;SDS011;4744;52.576;13.568;2023-12-22T03:26:31;5.20;;;1.77;;
9409;SDS011;4744;52.576;13.568;2023-12-22T03:28:58;6.63;;;1.65;;
9409;SDS011;4744;52.576;13.568;2023-12-22T03:31:26;3.72;;;1.70;;
9409;SDS011;4744;52.576;13.568;2023-12-22T03:33:53;3.25;;;1.55;;
9409;SDS011;4744;52.576;13.568;2023-12-22T03:36:19;5.80;;;1.55;;
9409;SDS011;4744;52.576;13.568;2023-12-22T03:38:46;5.57;;;1.90;;
9409;SDS011;4744;52.576;13.568;2023-12-22T03:41:13;5.80;;;1.92;;
9409;SDS011;4744;52.576;13.568;2023-12-22T03:43:40;4.60;;;1.73;;
9409;SDS011;4744;52.576;13.568;2023-12-22T03:46:07;6.15;;;2.20;;
9409;SDS011;4744;52.576;13.568;2023-12-22T03:48:35;4.50;;;1.80;;
9409;SDS011;4744;52.576;13.568;2023-12-22T03:51:01;7.50;;;2.17;;
9409;SDS011;4744;52.576;13.568;2023-12-22T03:53:28;7.75;;;1.90;;
9409;SDS011;4744;52.576;13.568;2023-12-22T03:55:55;5.13;;;1.65;;
9409;SDS011;4744;52.576;13.568;2023-12-22T03:58:22;4.10;;;1.80;;
9409;SDS011;4744;52.576;13.568;2023-12-22T04:00:49;5.50;;;1.70;;
9409;SDS011;4744;52.576;13.568;2023-12-22T04:03:16;5.53;;;1.65;;
9409;SDS011;4744;52.576;13.568;2023-12-22T04:05:44;4.40;;;1.65;;
9409;SDS011;4744;52.576;13.568;2023-12-22T04:08:11;9.13;;;1.90;;
9409;SDS011;4744;52.576;13.568;2023-12-22T04:10:38;4.00;;;1.80;;
9409;SDS011;4744;52.576;13.568;2023-12-22T04:13:05;6.75;;;2.22;;
9409;SDS011;4744;52.576;13.568;2023-12-22T04:15:32;8.13;;;1.70;;
9409;SDS011;4744;52.576;13.568;2023-12-22T04:17:59;12.20;;;1.98;;
9409;SDS011;4744;52.576;13.568;2023-12-22T04:20:26;9.45;;;2.20;;
9409;SDS011;4744;52.576;13.568;2023-12-22T04:22:54;2.88;;;0.93;;
9409;SDS011;4744;52.576;13.568;2023-12-22T04:25:21;1.98;;;1.00;;
9409;SDS011;4744;52.576;13.568;2023-12-22T04:27:49;1.15;;;1.05;;
9409;SDS011;4744;52.576;13.568;2023-12-22T04:30:16;2.85;;;1.25;;
9409;SDS011;4744;52.576;13.568;2023-12-22T04:32:43;2.13;;;0.93;;
9409;SDS011;4744;52.576;13.568;2023-12-22T04:35:10;2.03;;;0.90;;
9409;SDS011;4744;52.576;13.568;2023-12-22T04:37:37;0.93;;;0.50;;
9409;SDS011;4744;52.576;13.568;2023-12-22T04:40:06;2.25;;;0.70;;
9409;SDS011;4744;52.576;13.568;2023-12-22T04:42:33;1.95;;;1.13;;
9409;SDS011;4744;52.576;13.568;2023-12-22T04:45:00;1.25;;;0.88;;
9409;SDS011;4744;52.576;13.568;2023-12-22T04:47:27;3.63;;;1.23;;
9409;SDS011;4744;52.576;13.568;2023-12-22T04:49:54;1.73;;;0.80;;
9409;SDS011;4744;52.576;13.568;2023-12-22T04:52:21;2.03;;;0.98;;
9409;SDS011;4744;52.576;13.568;2023-12-22T04:54:47;4.03;;;1.23;;
9409;SDS011;4744;52.576;13.568;2023-12-22T04:57:16;2.42;;;1.00;;
9409;SDS011;4744;52.576;13.568;2023-12-22T04:59:43;4.60;;;1.20;;
9409;SDS011;4744;52.576;13.568;2023-12-22T05:02:10;3.17;;;0.90;;
9409;SDS011;4744;52.576;13.568;2023-12-22T05:04:37;3.40;;;1.00;;
9409;SDS011;4744;52.576;13.568;2023-12-22T05:07:04;2.15;;;0.85;;
9409;SDS011;4744;52.576;13.568;2023-12-22T05:09:32;4.55;;;1.00;;
9409;SDS011;4744;52.576;13.568;2023-12-22T05:11:59;6.80;;;1.00;;
9409;SDS011;4744;52.576;13.568;2023-12-22T05:14:27;1.27;;;0.73;;
9409;SDS011;4744;52.576;13.568;2023-12-22T05:16:54;2.40;;;0.88;;
9409;SDS011;4744;52.576;13.568;2023-12-22T05:19:22;1.85;;;0.47;;
9409;SDS011;4744;52.576;13.568;2023-12-22T05:21:48;1.05;;;0.63;;
9409;SDS011;4744;52.576;13.568;2023-12-22T05:24:17;1.52;;;0.85;;
9409;SDS011;4744;52.576;13.568;2023-12-22T05:26:44;1.65;;;0.77;;
9409;SDS011;4744;52.576;13.568;2023-12-22T05:29:11;1.40;;;0.70;;
9409;SDS011;4744;52.576;13.568;2023-12-22T05:31:39;3.83;;;0.80;;
9409;SDS011;4744;52.576;13.568;2023-12-22T05:34:06;2.40;;;0.60;;
9409;SDS011;4744;52.576;13.568;2023-12-22T05:36:35;0.73;;;0.63;;
9409;SDS011;4744;52.576;13.568;2023-12-22T05:39:02;1.98;;;0.68;;
9409;SDS011;4744;52.576;13.568;2023-12-22T05:41:29;3.78;;;0.85;;
9409;SDS011;4744;52.576;13.568;2023-12-22T05:43:56;0.65;;;0.50;;
9409;SDS011;4744;52.576;13.568;2023-12-22T05:46:23;0.50;;;0.40;;
9409;SDS011;4744;52.576;13.568;2023-12-22T05:48:51;1.02;;;0.60;;
9409;SDS011;4744;52.576;13.568;2023-12-22T05:51:18;1.83;;;0.70;;
9409;SDS011;4744;52.576;13.568;2023-12-22T05:53:44;2.50;;;0.65;;
9409;SDS011;4744;52.576;13.568;2023-12-22T05:56:17;1.00;;;0.63;;
9409;SDS011;4744;52.576;13.568;2023-12-22T05:58:45;1.88;;;0.70;;
9409;SDS011;4744;52.576;13.568;2023-12-22T06:01:14;1.33;;;0.73;;
9409;SDS011;4744;52.576;13.568;2023-12-22T06:03:42;1.30;;;0.70;;
9409;SDS011;4744;52.576;13.568;2023-12-22T06:06:10;2.38;;;1.02;;
9409;SDS011;4744;52.576;13.568;2023-12-22T06:08:37;3.15;;;1.02;;
9409;SDS011;4744;52.576;13.568;2023-12-22T06:11:04;1.92;;;0.70;;
9409;SDS011;4744;52.576;13.568;2023-12-22T06:13:31;2.00;;;0.90;;
9409;SDS011;4744;52.576;13.568;2023-12-22T06:15:58;2.88;;;0.95;;
9409;SDS011;4744;52.576;13.568;2023-12-22T06:18:25;3.58;;;1.00;;
9409;SDS011;4744;52.576;13.568;2023-12-22T06:20:52;1.52;;;0.75;;
9409;SDS011;4744;52.576;13.568;2023-12-22T06:23:20;3.03;;;1.13;;
9409;SDS011;4744;52.576;13.568;2023-12-22T06:25:47;3.85;;;1.27;;
9409;SDS011;4744;52.576;13.568;2023-12-22T06:28:14;2.45;;;0.98;;
9409;SDS011;4744;52.576;13.568;2023-12-22T06:30:42;4.55;;;1.20;;
9409;SDS011;4744;52.576;13.568;2023-12-22T06:33:09;2.78;;;0.80;;
9409;SDS011;4744;52.576;13.568;2023-12-22T06:35:36;2.78;;;0.95;;
9409;SDS011;4744;52.576;13.568;2023-12-22T06:38:05;3.92;;;1.10;;
9409;SDS011;4744;52.576;13.568;2023-12-22T06:40:35;2.72;;;1.00;;
9409;SDS011;4744;52.576;13.568;2023-12-22T06:43:02;3.08;;;1.23;;
9409;SDS011;4744;52.576;13.568;2023-12-22T06:45:29;1.38;;;0.80;;
9409;SDS011;4744;52.576;13.568;2023-12-22T06:47:56;3.05;;;1.02;;
9409;SDS011;4744;52.576;13.568;2023-12-22T06:50:23;2.53;;;0.93;;
9409;SDS011;4744;52.576;13.568;2023-12-22T06:52:50;1.48;;;0.80;;
9409;SDS011;4744;52.576;13.568;2023-12-22T06:55:17;3.65;;;1.05;;
9409;SDS011;4744;52.576;13.568;2023-12-22T06:57:45;2.72;;;0.70;;
9409;SDS011;4744;52.576;13.568;2023-12-22T07:00:12;2.95;;;0.95;;
9409;SDS011;4744;52.576;13.568;2023-12-22T07:02:40;1.48;;;0.90;;
9409;SDS011;4744;52.576;13.568;2023-12-22T07:07:57;2.45;;;0.75;;
9409;SDS011;4744;52.576;13.568;2023-12-22T07:10:24;0.63;;;0.50;;
9409;SDS011;4744;52.576;13.568;2023-12-22T07:12:52;2.42;;;0.55;;
9409;SDS011;4744;52.576;13.568;2023-12-22T07:15:19;0.73;;;0.70;;
9409;SDS011;4744;52.576;13.568;2023-12-22T07:17:46;0.90;;;0.47;;
9409;SDS011;4744;52.576;13.568;2023-12-22T07:20:13;3.13;;;0.85;;
9409;SDS011;4744;52.576;13.568;2023-12-22T07:22:40;2.58;;;0.90;;
9409;SDS011;4744;52.576;13.568;2023-12-22T07:25:07;4.40;;;1.33;;
9409;SDS011;4744;52.576;13.568;2023-12-22T07:27:34;3.05;;;1.20;;
9409;SDS011;4744;52.576;13.568;2023-12-22T07:30:03;3.20;;;1.35;;
9409;SDS011;4744;52.576;13.568;2023-12-22T07:32:30;1.30;;;0.85;;
9409;SDS011;4744;52.576;13.568;2023-12-22T07:34:57;0.90;;;0.60;;
9409;SDS011;4744;52.576;13.568;2023-12-22T07:37:24;3.78;;;1.20;;
9409;SDS011;4744;52.576;13.568;2023-12-22T07:39:51;5.38;;;1.05;;
9409;SDS011;4744;52.576;13.568;2023-12-22T07:42:18;2.83;;;1.05;;
9409;SDS011;4744;52.576;13.568;2023-12-22T07:44:45;5.53;;;1.20;;
9409;SDS011;4744;52.576;13.568;2023-12-22T07:47:13;4.80;;;1.35;;
9409;SDS011;4744;52.576;13.568;2023-12-22T07:49:40;4.40;;;1.15;;
9409;SDS011;4744;52.576;13.568;2023-12-22T07:52:07;4.70;;;1.33;;
9409;SDS011;4744;52.576;13.568;2023-12-22T07:54:34;5.03;;;1.45;;
9409;SDS011;4744;52.576;13.568;2023-12-22T07:57:02;5.35;;;1.35;;
9409;SDS011;4744;52.576;13.568;2023-12-22T07:59:29;2.05;;;1.10;;
9409;SDS011;4744;52.576;13.568;2023-12-22T08:01:55;2.92;;;1.20;;
9409;SDS011;4744;52.576;13.568;2023-12-22T08:04:24;3.75;;;1.35;;
9409;SDS011;4744;52.576;13.568;2023-12-22T08:06:51;4.40;;;1.50;;
9409;SDS011;4744;52.576;13.568;2023-12-22T08:09:18;5.78;;;1.38;;
9409;SDS011;4744;52.576;13.568;2023-12-22T08:11:45;3.45;;;1.40;;
9409;SDS011;4744;52.576;13.568;2023-12-22T08:14:12;3.28;;;1.27;;
9409;SDS011;4744;52.576;13.568;2023-12-22T08:16:39;3.75;;;1.10;;
9409;SDS011;4744;52.576;13.568;2023-12-22T08:19:06;5.90;;;1.70;;
9409;SDS011;4744;52.576;13.568;2023-12-22T08:21:34;3.65;;;1.42;;
9409;SDS011;4744;52.576;13.568;2023-12-22T08:24:01;4.30;;;1.30;;
9409;SDS011;4744;52.576;13.568;2023-12-22T08:26:29;2.38;;;1.10;;
9409;SDS011;4744;52.576;13.568;2023-12-22T08:28:55;4.57;;;1.50;;
9409;SDS011;4744;52.576;13.568;2023-12-22T08:31:23;2.03;;;0.98;;
9409;SDS011;4744;52.576;13.568;2023-12-22T08:33:49;5.30;;;1.08;;
9409;SDS011;4744;52.576;13.568;2023-12-22T08:36:16;2.95;;;0.90;;
9409;SDS011;4744;52.576;13.568;2023-12-22T08:38:44;3.72;;;1.33;;
9409;SDS011;4744;52.576;13.568;2023-12-22T08:41:11;2.03;;;1.05;;
9409;SDS011;4744;52.576;13.568;2023-12-22T08:43:39;1.20;;;0.88;;
9409;SDS011;4744;52.576;13.568;2023-12-22T08:46:07;3.72;;;0.98;;
9409;SDS011;4744;52.576;13.568;2023-12-22T08:48:34;4.43;;;1.00;;
9409;SDS011;4744;52.576;13.568;2023-12-22T08:51:01;4.53;;;1.08;;
9409;SDS011;4744;52.576;13.568;2023-12-22T08:53:29;4.55;;;1.20;;
9409;SDS011;4744;52.576;13.568;2023-12-22T08:56:00;1.88;;;0.95;;
9409;SDS011;4744;52.576;13.568;2023-12-22T08:58:27;3.53;;;1.10;;
9409;SDS011;4744;52.576;13.568;2023-12-22T09:00:54;3.20;;;1.23;;
9409;SDS011;4744;52.576;13.568;2023-12-22T09:03:21;4.13;;;1.50;;
9409;SDS011;4744;52.576;13.568;2023-12-22T09:05:48;5.68;;;1.30;;
9409;SDS011;4744;52.576;13.568;2023-12-22T09:08:15;4.38;;;1.60;;
9409;SDS011;4744;52.576;13.568;2023-12-22T09:10:42;4.28;;;1.50;;
9409;SDS011;4744;52.576;13.568;2023-12-22T09:13:11;6.50;;;1.52;;
9409;SDS011;4744;52.576;13.568;2023-12-22T09:15:38;6.20;;;1.58;;
9409;SDS011;4744;52.576;13.568;2023-12-22T09:18:06;3.85;;;1.33;;
9409;SDS011;4744;52.576;13.568;2023-12-22T09:20:33;5.82;;;1.65;;
9409;SDS011;4744;52.576;13.568;2023-12-22T09:23:00;3.65;;;1.30;;
9409;SDS011;4744;52.576;13.568;2023-12-22T09:25:30;6.72;;;1.83;;
9409;SDS011;4744;52.576;13.568;2023-12-22T09:27:57;4.10;;;1.60;;
9409;SDS011;4744;52.576;13.568;2023-12-22T09:30:25;3.60;;;1.30;;
9409;SDS011;4744;52.576;13.568;2023-12-22T09:32:52;5.57;;;1.73;;
9409;SDS011;4744;52.576;13.568;2023-12-22T09:35:19;5.82;;;1.48;;
9409;SDS011;4744;52.576;13.568;2023-12-22T09:37:47;4.85;;;1.65;;
9409;SDS011;4744;52.576;13.568;2023-12-22T09:40:14;4.30;;;1.50;;
9409;SDS011;4744;52.576;13.568;2023-12-22T09:42:40;5.20;;;1.63;;
9409;SDS011;4744;52.576;13.568;2023-12-22T09:45:11;9.02;;;2.00;;
9409;SDS011;4744;52.576;13.568;2023-12-22T09:47:40;6.13;;;1.80;;
9409;SDS011;4744;52.576;13.568;2023-12-22T09:50:09;8.70;;;1.85;;
9409;SDS011;4744;52.576;13.568;2023-12-22T09:52:36;5.63;;;1.88;;
9409;SDS011;4744;52.576;13.568;2023-12-22T09:55:04;7.60;;;1.80;;
9409;SDS011;4744;52.576;13.568;2023-12-22T09:57:35;6.40;;;1.80;;
9409;SDS011;4744;52.576;13.568;2023-12-22T10:00:03;5.75;;;1.95;;
9409;SDS011;4744;52.576;13.568;2023-12-22T10:02:32;5.63;;;1.70;;
9409;SDS011;4744;52.576;13.568;2023-12-22T10:05:01;3.75;;;1.55;;
9409;SDS011;4744;52.576;13.568;2023-12-22T10:07:29;6.22;;;1.75;;
9409;SDS011;4744;52.576;13.568;2023-12-22T10:09:58;5.45;;;2.05;;
9409;SDS011;4744;52.576;13.568;2023-12-22T10:12:26;5.68;;;1.92;;
9409;SDS011;4744;52.576;13.568;2023-12-22T10:14:55;5.97;;;1.77;;
9409;SDS011;4744;52.576;13.568;2023-12-22T10:17:23;5.35;;;1.90;;
9409;SDS011;4744;52.576;13.568;2023-12-22T10:19:51;8.38;;;2.03;;
9409;SDS011;4744;52.576;13.568;2023-12-22T10:22:19;6.43;;;1.92;;
9409;SDS011;4744;52.576;13.568;2023-12-22T10:24:49;7.57;;;2.10;;
9409;SDS011;4744;52.576;13.568;2023-12-22T10:27:17;9.05;;;2.05;;
9409;SDS011;4744;52.576;13.568;2023-12-22T10:29:47;7.40;;;2.03;;
9409;SDS011;4744;52.576;13.568;2023-12-22T10:32:15;6.10;;;2.05;;
9409;SDS011;4744;52.576;13.568;2023-12-22T10:34:42;5.68;;;2.22;;
9409;SDS011;4744;52.576;13.568;2023-12-22T10:37:09;10.13;;;2.30;;
9409;SDS011;4744;52.576;13.568;2023-12-22T10:39:39;7.38;;;2.13;;
9409;SDS011;4744;52.576;13.568;2023-12-22T10:42:06;6.32;;;1.80;;
9409;SDS011;4744;52.576;13.568;2023-12-22T10:44:34;8.15;;;2.15;;
9409;SDS011;4744;52.576;13.568;2023-12-22T10:47:00;5.72;;;2.55;;
9409;SDS011;4744;52.576;13.568;2023-12-22T10:49:28;7.60;;;2.10;;
9409;SDS011;4744;52.576;13.568;2023-12-22T10:51:57;6.03;;;2.10;;
9409;SDS011;4744;52.576;13.568;2023-12-22T10:54:24;9.40;;;1.90;;
9409;SDS011;4744;52.576;13.568;2023-12-22T10:56:53;6.35;;;2.05;;
9409;SDS011;4744;52.576;13.568;2023-12-22T10:59:23;6.97;;;2.10;;
9409;SDS011;4744;52.576;13.568;2023-12-22T11:01:56;6.30;;;2.08;;
9409;SDS011;4744;52.576;13.568;2023-12-22T11:04:25;11.98;;;2.30;;
9409;SDS011;4744;52.576;13.568;2023-12-22T11:06:57;10.88;;;2.10;;
9409;SDS011;4744;52.576;13.568;2023-12-22T11:09:25;4.75;;;2.00;;
9409;SDS011;4744;52.576;13.568;2023-12-22T11:11:57;8.25;;;2.00;;
9409;SDS011;4744;52.576;13.568;2023-12-22T11:14:24;6.05;;;1.90;;
9409;SDS011;4744;52.576;13.568;2023-12-22T11:16:53;7.50;;;2.50;;
9409;SDS011;4744;52.576;13.568;2023-12-22T11:19:21;5.32;;;1.80;;
9409;SDS011;4744;52.576;13.568;2023-12-22T11:21:49;6.72;;;2.22;;
9409;SDS011;4744;52.576;13.568;2023-12-22T11:24:17;4.30;;;1.95;;
9409;SDS011;4744;52.576;13.568;2023-12-22T11:26:45;6.85;;;1.92;;
9409;SDS011;4744;52.576;13.568;2023-12-22T11:29:15;7.93;;;2.20;;
9409;SDS011;4744;52.576;13.568;2023-12-22T11:31:44;8.02;;;2.42;;
9409;SDS011;4744;52.576;13.568;2023-12-22T11:34:13;9.65;;;1.92;;
9409;SDS011;4744;52.576;13.568;2023-12-22T11:36:43;6.15;;;1.73;;
9409;SDS011;4744;52.576;13.568;2023-12-22T11:39:13;7.13;;;1.98;;
9409;SDS011;4744;52.576;13.568;2023-12-22T11:41:40;8.70;;;1.83;;
9409;SDS011;4744;52.576;13.568;2023-12-22T11:44:09;5.93;;;1.90;;
9409;SDS011;4744;52.576;13.568;2023-12-22T11:46:37;10.13;;;2.30;;
9409;SDS011;4744;52.576;13.568;2023-12-22T11:49:04;8.18;;;2.17;;
9409;SDS011;4744;52.576;13.568;2023-12-22T11:51:32;4.65;;;2.15;;
9409;SDS011;4744;52.576;13.568;2023-12-22T11:54:00;11.02;;;2.20;;
9409;SDS011;4744;52.576;13.568;2023-12-22T11:56:28;5.05;;;1.73;;
9409;SDS011;4744;52.576;13.568;2023-12-22T11:58:56;5.20;;;1.63;;
9409;SDS011;4744;52.576;13.568;2023-12-22T12:01:24;6.50;;;1.90;;
9409;SDS011;4744;52.576;13.568;2023-12-22T12:03:55;10.50;;;2.00;;
9409;SDS011;4744;52.576;13.568;2023-12-22T12:06:30;6.25;;;1.60;;
9409;SDS011;4744;52.576;13.568;2023-12-22T12:08:59;9.85;;;2.05;;
9409;SDS011;4744;52.576;13.568;2023-12-22T12:14:29;4.22;;;1.48;;
9409;SDS011;4744;52.576;13.568;2023-12-22T12:17:00;6.47;;;1.73;;
9409;SDS011;4744;52.576;13.568;2023-12-22T12:19:34;4.00;;;1.42;;
9409;SDS011;4744;52.576;13.568;2023-12-22T12:22:02;5.32;;;1.70;;
9409;SDS011;4744;52.576;13.568;2023-12-22T12:24:29;4.30;;;1.60;;
9409;SDS011;4744;52.576;13.568;2023-12-22T12:26:56;5.88;;;2.00;;
9409;SDS011;4744;52.576;13.568;2023-12-22T12:29:23;7.18;;;1.95;;
9409;SDS011;4744;52.576;13.568;2023-12-22T12:31:51;8.73;;;1.90;;
9409;SDS011;4744;52.576;13.568;2023-12-22T12:34:17;6.28;;;1.73;;
9409;SDS011;4744;52.576;13.568;2023-12-22T12:36:47;5.97;;;1.70;;
9409;SDS011;4744;52.576;13.568;2023-12-22T12:39:15;6.25;;;1.90;;
9409;SDS011;4744;52.576;13.568;2023-12-22T12:41:44;8.45;;;1.95;;
9409;SDS011;4744;52.576;13.568;2023-12-22T12:44:18;7.72;;;1.92;;
9409;SDS011;4744;52.576;13.568;2023-12-22T12:46:47;3.60;;;1.60;;
9409;SDS011;4744;52.576;13.568;2023-12-22T12:49:14;5.10;;;1.70;;
9409;SDS011;4744;52.576;13.568;2023-12-22T12:51:42;6.82;;;1.77;;
9409;SDS011;4744;52.576;13.568;2023-12-22T12:54:12;7.03;;;1.65;;
9409;SDS011;4744;52.576;13.568;2023-12-22T12:56:40;6.55;;;2.10;;
9409;SDS011;4744;52.576;13.568;2023-12-22T12:59:08;7.88;;;1.83;;
9409;SDS011;4744;52.576;13.568;2023-12-22T13:01:39;7.45;;;1.48;;
9409;SDS011;4744;52.576;13.568;2023-12-22T13:04:06;3.88;;;1.40;;
9409;SDS011;4744;52.576;13.568;2023-12-22T13:06:33;4.22;;;1.70;;
9409;SDS011;4744;52.576;13.568;2023-12-22T13:09:00;5.85;;;1.70;;
9409;SDS011;4744;52.576;13.568;2023-12-22T13:11:30;4.38;;;1.65;;
9409;SDS011;4744;52.576;13.568;2023-12-22T13:13:58;7.30;;;2.10;;
9409;SDS011;4744;52.576;13.568;2023-12-22T13:16:26;6.68;;;1.95;;
9409;SDS011;4744;52.576;13.568;2023-12-22T13:18:55;6.00;;;2.13;;
9409;SDS011;4744;52.576;13.568;2023-12-22T13:21:23;5.93;;;1.80;;
9409;SDS011;4744;52.576;13.568;2023-12-22T13:26:37;5.65;;;1.80;;
9409;SDS011;4744;52.576;13.568;2023-12-22T13:29:04;6.53;;;1.88;;
9409;SDS011;4744;52.576;13.568;2023-12-22T13:31:31;6.80;;;1.90;;
9409;SDS011;4744;52.576;13.568;2023-12-22T13:33:59;7.25;;;1.70;;
9409;SDS011;4744;52.576;13.568;2023-12-22T13:36:26;5.75;;;1.70;;
9409;SDS011;4744;52.576;13.568;2023-12-22T13:38:53;5.15;;;1.83;;
9409;SDS011;4744;52.576;13.568;2023-12-22T13:41:20;6.40;;;1.80;;
9409;SDS011;4744;52.576;13.568;2023-12-22T13:43:48;4.85;;;1.70;;
9409;SDS011;4744;52.576;13.568;2023-12-22T13:46:15;5.78;;;1.50;;
9409;SDS011;4744;52.576;13.568;2023-12-22T13:48:43;5.13;;;1.50;;
9409;SDS011;4744;52.576;13.568;2023-12-22T13:51:10;2.80;;;1.40;;
9409;SDS011;4744;52.576;13.568;2023-12-22T13:53:46;4.57;;;1.50;;
9409;SDS011;4744;52.576;13.568;2023-12-22T13:56:16;7.75;;;2.20;;
9409;SDS011;4744;52.576;13.568;2023-12-22T13:58:43;5.95;;;1.60;;
9409;SDS011;4744;52.576;13.568;2023-12-22T14:01:15;5.45;;;1.80;;
9409;SDS011;4744;52.576;13.568;2023-12-22T14:03:43;5.95;;;1.80;;
9409;SDS011;4744;52.576;13.568;2023-12-22T14:06:11;4.95;;;1.80;;
9409;SDS011;4744;52.576;13.568;2023-12-22T14:08:38;5.07;;;1.60;;
9409;SDS011;4744;52.576;13.568;2023-12-22T14:11:06;7.50;;;1.83;;
9409;SDS011;4744;52.576;13.568;2023-12-22T14:13:33;5.28;;;1.55;;
9409;SDS011;4744;52.576;13.568;2023-12-22T14:16:04;5.07;;;1.80;;
9409;SDS011;4744;52.576;13.568;2023-12-22T14:18:33;3.47;;;1.52;;
9409;SDS011;4744;52.576;13.568;2023-12-22T14:21:00;6.95;;;1.98;;
9409;SDS011;4744;52.576;13.568;2023-12-22T14:23:29;6.05;;;1.92;;
9409;SDS011;4744;52.576;13.568;2023-12-22T14:25:56;5.82;;;1.90;;
9409;SDS011;4744;52.576;13.568;2023-12-22T14:28:23;6.70;;;1.38;;
9409;SDS011;4744;52.576;13.568;2023-12-22T14:30:49;10.18;;;1.90;;
9409;SDS011;4744;52.576;13.568;2023-12-22T14:33:17;7.57;;;1.90;;
9409;SDS011;4744;52.576;13.568;2023-12-22T14:35:45;5.28;;;1.83;;
9409;SDS011;4744;52.576;13.568;2023-12-22T14:38:12;3.40;;;1.50;;
9409;SDS011;4744;52.576;13.568;2023-12-22T14:40:39;7.28;;;1.90;;
9409;SDS011;4744;52.576;13.568;2023-12-22T14:43:06;6.80;;;2.08;;
9409;SDS011;4744;52.576;13.568;2023-12-22T14:45:33;4.07;;;2.08;;
9409;SDS011;4744;52.576;13.568;2023-12-22T14:48:00;9.05;;;2.08;;
9409;SDS011;4744;52.576;13.568;2023-12-22T14:50:29;6.47;;;1.98;;
9409;SDS011;4744;52.576;13.568;2023-12-22T14:52:58;4.65;;;1.30;;
9409;SDS011;4744;52.576;13.568;2023-12-22T14:55:24;4.53;;;1.40;;
9409;SDS011;4744;52.576;13.568;2023-12-22T14:57:52;4.85;;;1.63;;
9409;SDS011;4744;52.576;13.568;2023-12-22T15:00:19;6.07;;;1.73;;
9409;SDS011;4744;52.576;13.568;2023-12-22T15:02:47;5.88;;;1.52;;
9409;SDS011;4744;52.576;13.568;2023-12-22T15:05:14;5.40;;;1.65;;
9409;SDS011;4744;52.576;13.568;2023-12-22T15:07:41;3.13;;;1.30;;
9409;SDS011;4744;52.576;13.568;2023-12-22T15:10:10;3.13;;;1.50;;
9409;SDS011;4744;52.576;13.568;2023-12-22T15:12:36;6.78;;;1.70;;